C2017 KFMH-
Flight info
| Callsign | C2017 |
|---|---|
| Flight time | N/A |
| Altitude | VFR |
| Route | |
| Aircraft | C30J/M-VGD/C |
Departure
| Time | 2026-04-23 21:48 |
|---|---|
| Airport | Cape Cod Coast Guard Air Station (KFMH) |
Arrival
| Time | N/A |
|---|---|
| Airport | - |
| Time | Latitude | Longitude | Altitude | Speed | Heading |
|---|---|---|---|---|---|
| 2026-04-23 21:37 | 41.66417 | -70.51985 | 132 ft | 0 kts | 356° |
| 2026-04-23 21:38 | 41.66421 | -70.51985 | 132 ft | 1 kts | 355° |
| 2026-04-23 21:39 | 41.66434 | -70.51986 | 133 ft | 2 kts | 359° |
| 2026-04-23 21:39 | 41.66441 | -70.51984 | 133 ft | 2 kts | 9° |
| 2026-04-23 21:39 | 41.66451 | -70.51980 | 133 ft | 3 kts | 31° |
| 2026-04-23 21:39 | 41.66459 | -70.51931 | 134 ft | 8 kts | 89° |
| 2026-04-23 21:40 | 41.66463 | -70.51840 | 134 ft | 12 kts | 84° |
| 2026-04-23 21:40 | 41.66472 | -70.51720 | 132 ft | 13 kts | 87° |
| 2026-04-23 21:40 | 41.66479 | -70.51606 | 130 ft | 12 kts | 84° |
| 2026-04-23 21:40 | 41.66488 | -70.51503 | 130 ft | 10 kts | 83° |
| 2026-04-23 21:41 | 41.66473 | -70.51398 | 126 ft | 14 kts | 126° |
| 2026-04-23 21:41 | 41.66400 | -70.51289 | 127 ft | 17 kts | 135° |
| 2026-04-23 21:41 | 41.66330 | -70.51197 | 128 ft | 9 kts | 135° |
| 2026-04-23 21:41 | 41.66282 | -70.51170 | 127 ft | 13 kts | 203° |
| 2026-04-23 21:42 | 41.66224 | -70.51231 | 125 ft | 12 kts | 217° |
| 2026-04-23 21:42 | 41.66147 | -70.51313 | 128 ft | 16 kts | 220° |
| 2026-04-23 21:42 | 41.66052 | -70.51416 | 124 ft | 19 kts | 219° |
| 2026-04-23 21:42 | 41.65939 | -70.51536 | 122 ft | 22 kts | 220° |
| 2026-04-23 21:43 | 41.65819 | -70.51668 | 121 ft | 23 kts | 218° |
| 2026-04-23 21:43 | 41.65701 | -70.51794 | 123 ft | 11 kts | 219° |
| 2026-04-23 21:43 | 41.65694 | -70.51801 | 119 ft | 0 kts | 218° |
| 2026-04-23 21:44 | 41.65693 | -70.51801 | 119 ft | 2 kts | 218° |
| 2026-04-23 21:44 | 41.65600 | -70.51903 | 121 ft | 22 kts | 219° |
| 2026-04-23 21:44 | 41.65474 | -70.52039 | 126 ft | 25 kts | 218° |
| 2026-04-23 21:44 | 41.65330 | -70.52191 | 123 ft | 28 kts | 217° |
| 2026-04-23 21:45 | 41.65174 | -70.52359 | 121 ft | 30 kts | 219° |
| 2026-04-23 21:45 | 41.65011 | -70.52538 | 116 ft | 31 kts | 219° |
| 2026-04-23 21:45 | 41.64864 | -70.52695 | 116 ft | 20 kts | 219° |
| 2026-04-23 21:45 | 41.64845 | -70.52716 | 115 ft | 3 kts | 219° |
| 2026-04-23 21:46 | 41.64837 | -70.52725 | 118 ft | 0 kts | 220° |
| 2026-04-23 21:46 | 41.64825 | -70.52750 | 117 ft | 5 kts | 274° |
| 2026-04-23 21:46 | 41.64891 | -70.52833 | 119 ft | 17 kts | 323° |
| 2026-04-23 21:46 | 41.64976 | -70.52912 | 116 ft | 15 kts | 326° |
| 2026-04-23 21:47 | 41.65050 | -70.52937 | 114 ft | 10 kts | 14° |
| 2026-04-23 21:47 | 41.65169 | -70.52834 | 113 ft | 43 kts | 39° |
| 2026-04-23 21:47 | 41.65540 | -70.52435 | 120 ft | 107 kts | 39° |
| 2026-04-23 21:47 | 41.66292 | -70.51631 | 434 ft | 156 kts | 38° |
| 2026-04-23 21:48 | 41.67187 | -70.50675 | 1149 ft | 182 kts | 35° |
| 2026-04-23 21:48 | 41.68313 | -70.49505 | 1560 ft | 216 kts | 36° |
| 2026-04-23 21:48 | 41.69615 | -70.48550 | 2403 ft | 214 kts | 3° |
| 2026-04-23 21:48 | 41.70961 | -70.49221 | 3107 ft | 220 kts | 319° |
| 2026-04-23 21:49 | 41.72141 | -70.50562 | 3833 ft | 222 kts | 319° |
| 2026-04-23 21:49 | 41.73291 | -70.51869 | 4856 ft | 214 kts | 319° |
| 2026-04-23 21:49 | 41.74441 | -70.53098 | 5850 ft | 211 kts | 322° |
| 2026-04-23 21:49 | 41.75701 | -70.54112 | 6549 ft | 221 kts | 332° |
| 2026-04-23 21:50 | 41.77243 | -70.54724 | 7086 ft | 235 kts | 346° |
| 2026-04-23 21:50 | 41.78851 | -70.55045 | 7919 ft | 229 kts | 346° |
| 2026-04-23 21:50 | 41.80284 | -70.55917 | 8563 ft | 232 kts | 328° |
| 2026-04-23 21:50 | 41.81644 | -70.57049 | 9375 ft | 227 kts | 321° |
| 2026-04-23 21:51 | 41.82816 | -70.58400 | 10205 ft | 223 kts | 326° |
| 2026-04-23 21:51 | 41.84155 | -70.59452 | 11051 ft | 219 kts | 329° |
| 2026-04-23 21:51 | 41.85420 | -70.60434 | 11987 ft | 207 kts | 329° |
| 2026-04-23 21:51 | 41.86706 | -70.61434 | 11548 ft | 244 kts | 329° |
| 2026-04-23 21:52 | 41.88341 | -70.62698 | 10470 ft | 289 kts | 329° |
| 2026-04-23 21:52 | 41.90098 | -70.64074 | 10357 ft | 291 kts | 329° |
| 2026-04-23 21:52 | 41.91814 | -70.65412 | 10723 ft | 280 kts | 329° |
| 2026-04-23 21:52 | 41.93567 | -70.66449 | 11042 ft | 277 kts | 345° |
| 2026-04-23 21:53 | 41.95474 | -70.66769 | 11368 ft | 274 kts | 349° |
| 2026-04-23 21:53 | 41.97369 | -70.66950 | 11670 ft | 275 kts | 357° |
| 2026-04-23 21:53 | 41.99240 | -70.66183 | 11994 ft | 287 kts | 15° |
| 2026-04-23 21:53 | 42.01033 | -70.64997 | 12331 ft | 286 kts | 16° |
| 2026-04-23 21:54 | 42.02806 | -70.63804 | 12640 ft | 284 kts | 16° |
| 2026-04-23 21:54 | 42.04560 | -70.62601 | 12961 ft | 282 kts | 16° |
| 2026-04-23 21:54 | 42.06234 | -70.61428 | 13256 ft | 281 kts | 16° |
| 2026-04-23 21:54 | 42.07954 | -70.60197 | 13567 ft | 280 kts | 16° |
| 2026-04-23 21:55 | 42.09663 | -70.58950 | 13850 ft | 279 kts | 16° |
| 2026-04-23 21:55 | 42.11356 | -70.57693 | 14113 ft | 278 kts | 16° |
| 2026-04-23 21:55 | 42.13042 | -70.56423 | 14372 ft | 278 kts | 16° |
| 2026-04-23 21:55 | 42.14723 | -70.55138 | 14625 ft | 278 kts | 16° |
| 2026-04-23 21:56 | 42.16403 | -70.53842 | 14935 ft | 278 kts | 16° |
| 2026-04-23 21:56 | 42.18079 | -70.52526 | 15189 ft | 280 kts | 16° |
| 2026-04-23 21:56 | 42.19751 | -70.51172 | 15418 ft | 281 kts | 16° |
| 2026-04-23 21:56 | 42.21440 | -70.49794 | 15492 ft | 287 kts | 16° |
| 2026-04-23 21:57 | 42.23163 | -70.48399 | 15485 ft | 292 kts | 16° |
| 2026-04-23 21:57 | 42.24925 | -70.46988 | 15490 ft | 296 kts | 16° |
| 2026-04-23 21:57 | 42.26707 | -70.45569 | 15488 ft | 299 kts | 16° |
| 2026-04-23 21:57 | 42.28511 | -70.44138 | 15487 ft | 300 kts | 16° |
| 2026-04-23 21:58 | 42.30292 | -70.42730 | 15484 ft | 302 kts | 16° |
| 2026-04-23 21:58 | 42.32106 | -70.41300 | 15481 ft | 301 kts | 15° |
| 2026-04-23 21:58 | 42.33986 | -70.40249 | 15498 ft | 290 kts | 6° |
| 2026-04-23 21:58 | 42.35900 | -70.39384 | 15487 ft | 291 kts | 6° |
| 2026-04-23 21:59 | 42.37816 | -70.38513 | 15482 ft | 291 kts | 6° |
| 2026-04-23 21:59 | 42.39737 | -70.37643 | 15481 ft | 291 kts | 6° |
| 2026-04-23 21:59 | 42.41655 | -70.36774 | 15482 ft | 291 kts | 6° |
| 2026-04-23 22:00 | 42.45498 | -70.35034 | 15483 ft | 291 kts | 6° |
| 2026-04-23 22:00 | 42.47419 | -70.34159 | 15493 ft | 291 kts | 6° |
| 2026-04-23 22:00 | 42.49334 | -70.33287 | 15498 ft | 291 kts | 6° |
| 2026-04-23 22:00 | 42.51259 | -70.32693 | 15519 ft | 277 kts | 354° |
| 2026-04-23 22:01 | 42.53176 | -70.32642 | 15454 ft | 275 kts | 350° |
| 2026-04-23 22:01 | 42.55073 | -70.32691 | 15590 ft | 271 kts | 351° |
| 2026-04-23 22:01 | 42.56911 | -70.32613 | 15474 ft | 255 kts | 352° |
| 2026-04-23 22:01 | 42.58631 | -70.32507 | 15309 ft | 243 kts | 352° |
| 2026-04-23 22:02 | 42.60329 | -70.32414 | 14759 ft | 245 kts | 353° |
| 2026-04-23 22:02 | 42.62023 | -70.32363 | 14215 ft | 248 kts | 353° |
| 2026-04-23 22:02 | 42.63760 | -70.32353 | 13713 ft | 250 kts | 353° |
| 2026-04-23 22:02 | 42.65525 | -70.32380 | 13179 ft | 251 kts | 352° |
| 2026-04-23 22:03 | 42.67269 | -70.32424 | 12693 ft | 251 kts | 352° |
| 2026-04-23 22:03 | 42.69021 | -70.32482 | 12225 ft | 252 kts | 352° |
| 2026-04-23 22:03 | 42.70719 | -70.32656 | 11663 ft | 239 kts | 343° |
| 2026-04-23 22:03 | 42.72270 | -70.33433 | 10464 ft | 241 kts | 334° |
| 2026-04-23 22:04 | 42.73762 | -70.34333 | 10032 ft | 221 kts | 334° |
| 2026-04-23 22:04 | 42.75102 | -70.35132 | 9371 ft | 211 kts | 334° |
| 2026-04-23 22:04 | 42.76521 | -70.35986 | 7908 ft | 233 kts | 334° |
| 2026-04-23 22:04 | 42.78038 | -70.36917 | 6637 ft | 244 kts | 335° |
| 2026-04-23 22:05 | 42.79591 | -70.37888 | 5513 ft | 246 kts | 334° |
| 2026-04-23 22:05 | 42.81135 | -70.38861 | 4482 ft | 243 kts | 334° |
| 2026-04-23 22:05 | 42.82661 | -70.39828 | 3492 ft | 239 kts | 334° |
| 2026-04-23 22:05 | 42.84121 | -70.40763 | 3018 ft | 219 kts | 334° |
| 2026-04-23 22:06 | 42.85430 | -70.41601 | 2966 ft | 200 kts | 334° |
| 2026-04-23 22:06 | 42.86676 | -70.42400 | 2980 ft | 197 kts | 334° |
| 2026-04-23 22:06 | 42.87914 | -70.43196 | 2991 ft | 197 kts | 334° |
| 2026-04-23 22:06 | 42.89157 | -70.43993 | 2990 ft | 198 kts | 334° |
| 2026-04-23 22:07 | 42.90397 | -70.44807 | 2987 ft | 198 kts | 329° |
| 2026-04-23 22:07 | 42.91294 | -70.46200 | 2992 ft | 200 kts | 302° |
| 2026-04-23 22:07 | 42.91665 | -70.48029 | 2981 ft | 208 kts | 270° |
| 2026-04-23 22:07 | 42.91068 | -70.49850 | 2989 ft | 222 kts | 231° |
| 2026-04-23 22:08 | 42.89672 | -70.50817 | 2989 ft | 234 kts | 191° |
| 2026-04-23 22:08 | 42.88056 | -70.50497 | 2996 ft | 239 kts | 161° |
| 2026-04-23 22:08 | 42.86528 | -70.49606 | 2994 ft | 239 kts | 156° |
| 2026-04-23 22:08 | 42.85052 | -70.48676 | 2991 ft | 239 kts | 156° |
| 2026-04-23 22:09 | 42.84037 | -70.48016 | 2966 ft | 239 kts | 152° |
| 2026-04-23 22:09 | 42.82712 | -70.46708 | 2621 ft | 238 kts | 136° |
| 2026-04-23 22:09 | 42.81611 | -70.45069 | 2263 ft | 233 kts | 127° |
| 2026-04-23 22:09 | 42.80700 | -70.43259 | 2191 ft | 231 kts | 105° |
| 2026-04-23 22:10 | 42.80639 | -70.41164 | 2039 ft | 219 kts | 70° |
| 2026-04-23 22:10 | 42.81272 | -70.39338 | 1917 ft | 210 kts | 45° |
| 2026-04-23 22:10 | 42.82417 | -70.38220 | 1925 ft | 201 kts | 13° |
| 2026-04-23 22:10 | 42.83774 | -70.38207 | 1876 ft | 197 kts | 340° |
| 2026-04-23 22:11 | 42.84897 | -70.39222 | 1648 ft | 196 kts | 312° |
| 2026-04-23 22:11 | 42.85560 | -70.40859 | 1566 ft | 202 kts | 288° |
| 2026-04-23 22:11 | 42.85790 | -70.42769 | 1297 ft | 205 kts | 279° |
| 2026-04-23 22:11 | 42.85940 | -70.44700 | 949 ft | 205 kts | 276° |
| 2026-04-23 22:12 | 42.86119 | -70.46639 | 754 ft | 207 kts | 277° |
| 2026-04-23 22:12 | 42.86188 | -70.48600 | 762 ft | 207 kts | 272° |
| 2026-04-23 22:12 | 42.86177 | -70.50562 | 925 ft | 206 kts | 270° |
| 2026-04-23 22:12 | 42.86109 | -70.52517 | 1039 ft | 207 kts | 270° |
| 2026-04-23 22:13 | 42.85975 | -70.54474 | 1168 ft | 204 kts | 268° |
| 2026-04-23 22:13 | 42.85794 | -70.56361 | 1232 ft | 200 kts | 269° |
| 2026-04-23 22:13 | 42.85644 | -70.58274 | 1281 ft | 204 kts | 268° |
| 2026-04-23 22:13 | 42.85456 | -70.60194 | 1271 ft | 202 kts | 265° |
| 2026-04-23 22:14 | 42.85160 | -70.62055 | 1061 ft | 202 kts | 259° |
| 2026-04-23 22:14 | 42.84558 | -70.63800 | 991 ft | 215 kts | 230° |
| 2026-04-23 22:14 | 42.83234 | -70.64806 | 955 ft | 225 kts | 201° |
| 2026-04-23 22:14 | 42.81711 | -70.65049 | 1047 ft | 211 kts | 173° |
| 2026-04-23 22:15 | 42.80454 | -70.64212 | 839 ft | 191 kts | 137° |
| 2026-04-23 22:15 | 42.79861 | -70.62788 | 654 ft | 172 kts | 91° |
| 2026-04-23 22:15 | 42.80084 | -70.61291 | 722 ft | 161 kts | 50° |
| 2026-04-23 22:15 | 42.80932 | -70.60625 | 800 ft | 149 kts | 358° |
| 2026-04-23 22:16 | 42.81954 | -70.60559 | 699 ft | 150 kts | 2° |
| 2026-04-23 22:16 | 42.82975 | -70.60515 | 694 ft | 141 kts | 358° |
| 2026-04-23 22:16 | 42.83954 | -70.60478 | 722 ft | 144 kts | 358° |
| 2026-04-23 22:16 | 42.84971 | -70.60451 | 757 ft | 145 kts | 356° |
| 2026-04-23 22:17 | 42.85963 | -70.60479 | 806 ft | 143 kts | 355° |
| 2026-04-23 22:17 | 42.86965 | -70.60567 | 992 ft | 144 kts | 351° |
| 2026-04-23 22:17 | 42.87947 | -70.60710 | 1240 ft | 151 kts | 348° |
| 2026-04-23 22:17 | 42.89112 | -70.60981 | 1765 ft | 182 kts | 340° |
| 2026-04-23 22:18 | 42.90178 | -70.62002 | 2547 ft | 195 kts | 309° |
| 2026-04-23 22:18 | 42.90597 | -70.63736 | 3659 ft | 199 kts | 272° |
| 2026-04-23 22:18 | 42.90177 | -70.65246 | 4414 ft | 221 kts | 236° |
| 2026-04-23 22:18 | 42.88940 | -70.66278 | 4871 ft | 254 kts | 199° |
| 2026-04-23 22:19 | 42.87065 | -70.66409 | 5077 ft | 284 kts | 176° |
| 2026-04-23 22:19 | 42.85160 | -70.65691 | 5705 ft | 285 kts | 155° |
| 2026-04-23 22:19 | 42.83957 | -70.64679 | 6373 ft | 283 kts | 142° |
| 2026-04-23 22:19 | 42.82554 | -70.62701 | 6525 ft | 294 kts | 122° |
| 2026-04-23 22:20 | 42.81693 | -70.60202 | 6817 ft | 291 kts | 102° |
| 2026-04-23 22:20 | 42.81489 | -70.57489 | 7310 ft | 287 kts | 80° |
| 2026-04-23 22:20 | 42.81917 | -70.54848 | 7181 ft | 280 kts | 63° |
| 2026-04-23 22:20 | 42.82853 | -70.52582 | 7118 ft | 272 kts | 47° |
| 2026-04-23 22:21 | 42.84196 | -70.50829 | 7324 ft | 265 kts | 30° |
| 2026-04-23 22:21 | 42.85811 | -70.49718 | 7933 ft | 258 kts | 14° |
| 2026-04-23 22:21 | 42.87577 | -70.49425 | 7511 ft | 251 kts | 347° |
| 2026-04-23 22:21 | 42.89062 | -70.50528 | 7434 ft | 245 kts | 312° |
| 2026-04-23 22:22 | 42.89754 | -70.52674 | 7925 ft | 257 kts | 281° |
| 2026-04-23 22:22 | 42.89435 | -70.55111 | 8439 ft | 273 kts | 250° |
| 2026-04-23 22:22 | 42.88231 | -70.57193 | 8991 ft | 286 kts | 232° |
| 2026-04-23 22:22 | 42.86794 | -70.59118 | 9440 ft | 292 kts | 232° |
| 2026-04-23 22:23 | 42.85274 | -70.60964 | 9511 ft | 298 kts | 220° |
| 2026-04-23 22:23 | 42.83283 | -70.61906 | 9497 ft | 313 kts | 189° |
| 2026-04-23 22:23 | 42.81122 | -70.61530 | 9795 ft | 313 kts | 167° |
| 2026-04-23 22:23 | 42.79036 | -70.60711 | 10572 ft | 312 kts | 167° |
| 2026-04-23 22:24 | 42.76946 | -70.59883 | 11337 ft | 313 kts | 167° |
| 2026-04-23 22:24 | 42.74849 | -70.59038 | 12099 ft | 315 kts | 167° |
| 2026-04-23 22:24 | 42.72693 | -70.58153 | 12463 ft | 335 kts | 167° |
| 2026-04-23 22:24 | 42.70389 | -70.57200 | 12528 ft | 356 kts | 167° |
| 2026-04-23 22:25 | 42.68036 | -70.56233 | 12508 ft | 359 kts | 167° |
| 2026-04-23 22:25 | 42.65612 | -70.55236 | 12497 ft | 359 kts | 167° |
| 2026-04-23 22:25 | 42.63223 | -70.54252 | 12498 ft | 358 kts | 167° |
| 2026-04-23 22:25 | 42.60849 | -70.53272 | 12516 ft | 355 kts | 167° |
| 2026-04-23 22:26 | 42.58527 | -70.52308 | 12498 ft | 352 kts | 167° |
| 2026-04-23 22:26 | 42.56189 | -70.51337 | 12499 ft | 353 kts | 167° |
| 2026-04-23 22:26 | 42.53841 | -70.50361 | 12501 ft | 353 kts | 167° |
| 2026-04-23 22:26 | 42.51481 | -70.49376 | 12498 ft | 356 kts | 167° |
| 2026-04-23 22:27 | 42.49122 | -70.48381 | 12500 ft | 356 kts | 167° |
| 2026-04-23 22:27 | 42.46753 | -70.47383 | 12498 ft | 356 kts | 167° |
| 2026-04-23 22:27 | 42.44397 | -70.46391 | 12502 ft | 355 kts | 167° |
| 2026-04-23 22:27 | 42.42030 | -70.45396 | 12503 ft | 356 kts | 167° |
| 2026-04-23 22:28 | 42.39665 | -70.44402 | 12502 ft | 356 kts | 167° |
| 2026-04-23 22:28 | 42.37301 | -70.43407 | 12503 ft | 356 kts | 166° |
| 2026-04-23 22:28 | 42.34943 | -70.42417 | 12505 ft | 356 kts | 167° |
| 2026-04-23 22:28 | 42.32576 | -70.41422 | 12505 ft | 356 kts | 167° |
| 2026-04-23 22:29 | 42.30437 | -70.40517 | 12500 ft | 361 kts | 167° |
| 2026-04-23 22:29 | 42.28118 | -70.39524 | 12513 ft | 361 kts | 167° |
| 2026-04-23 22:29 | 42.25691 | -70.38996 | 12511 ft | 348 kts | 188° |
| 2026-04-23 22:29 | 42.23290 | -70.39195 | 12512 ft | 346 kts | 193° |
| 2026-04-23 22:30 | 42.20893 | -70.39437 | 12508 ft | 346 kts | 192° |
| 2026-04-23 22:30 | 42.18499 | -70.39682 | 11857 ft | 338 kts | 192° |
| 2026-04-23 22:30 | 42.16188 | -70.39885 | 11122 ft | 331 kts | 187° |
| 2026-04-23 22:30 | 42.13908 | -70.39753 | 10413 ft | 324 kts | 182° |